createdAt,value
2022-07-30T00:04:31.332Z,95490.19
2022-07-30T00:07:16.372Z,95486.16
2022-07-30T00:13:14.187Z,95490.69
2022-07-30T00:15:42.273Z,95480.50
2022-07-30T00:18:09.990Z,95486.25
2022-07-30T00:20:43.643Z,95481.97
2022-07-30T00:23:14.094Z,95481.50
2022-07-30T00:25:42.411Z,95471.91
2022-07-30T00:28:11.657Z,95481.06
2022-07-30T00:30:41.804Z,95475.56
2022-07-30T00:33:10.882Z,95477.56
2022-07-30T00:35:39.831Z,95471.75
2022-07-30T00:38:10.569Z,95465.38
2022-07-30T00:40:38.606Z,95469.13
2022-07-30T00:43:10.349Z,95465.28
2022-07-30T00:45:40.035Z,95464.72
2022-07-30T00:48:08.325Z,95462.97
2022-07-30T00:50:38.879Z,95464.50
2022-07-30T00:57:18.750Z,95466.91
2022-07-30T00:59:46.942Z,95462.84
2022-07-30T01:02:19.031Z,95458.75
2022-07-30T01:04:47.289Z,95467.53
2022-07-30T01:07:18.410Z,95466.84
2022-07-30T01:09:58.711Z,95468.41
2022-07-30T01:15:55.877Z,95459.06
2022-07-30T01:18:49.024Z,95461.34
2022-07-30T01:21:18.771Z,95456.53
2022-07-30T01:23:49.405Z,95461.28
2022-07-30T01:26:21.853Z,95456.53
2022-07-30T01:28:55.839Z,95450.16
2022-07-30T01:31:26.562Z,95446.97
2022-07-30T01:33:58.312Z,95448.38
2022-07-30T01:37:20.749Z,95443.75
2022-07-30T01:39:53.516Z,95443.94
2022-07-30T01:42:30.140Z,95444.69
2022-07-30T01:44:59.784Z,95446.84
2022-07-30T01:47:31.004Z,95448.78
2022-07-30T01:50:48.959Z,95445.63
2022-07-30T01:53:19.174Z,95440.81
2022-07-30T01:55:49.425Z,95438.47
2022-07-30T01:58:21.721Z,95436.81
2022-07-30T02:00:51.086Z,95447.25
2022-07-30T02:03:19.323Z,95444.59
2022-07-30T02:06:03.100Z,95450.69
2022-07-30T02:08:39.441Z,95443.72
2022-07-30T02:11:10.298Z,95448.25
2022-07-30T02:13:46.566Z,95443.56
2022-07-30T02:16:22.143Z,95445.84
2022-07-30T02:19:04.354Z,95445.09
2022-07-30T02:21:50.448Z,95438.44
2022-07-30T02:24:23.317Z,95447.44
2022-07-30T02:26:56.554Z,95438.66
2022-07-30T02:29:29.370Z,95448.91
2022-07-30T02:31:59.227Z,95445.81
2022-07-30T02:34:29.416Z,95449.38
2022-07-30T02:37:03.792Z,95443.47
2022-07-30T02:39:34.820Z,95444.59
2022-07-30T02:42:05.247Z,95443.66
2022-07-30T02:44:39.843Z,95456.69
2022-07-30T02:47:11.906Z,95454.94
2022-07-30T02:49:41.166Z,95453.00
2022-07-30T02:52:12.306Z,95447.63
2022-07-30T02:54:42.792Z,95447.72
2022-07-30T02:57:11.909Z,95439.81
2022-07-30T02:59:44.904Z,95433.72
2022-07-30T03:02:15.194Z,95440.63
2022-07-30T03:04:44.473Z,95437.97
2022-07-30T03:07:17.824Z,95430.53
2022-07-30T03:09:52.089Z,95435.19
2022-07-30T03:12:21.123Z,95428.94
2022-07-30T03:14:51.964Z,95436.41
2022-07-30T03:17:23.911Z,95431.59
2022-07-30T03:19:54.127Z,95428.28
2022-07-30T03:22:24.945Z,95421.13
2022-07-30T03:24:55.698Z,95433.25
2022-07-30T03:27:25.648Z,95433.56
2022-07-30T03:29:56.731Z,95434.53
2022-07-30T03:32:26.265Z,95435.81
2022-07-30T03:34:56.123Z,95435.09
2022-07-30T03:37:26.118Z,95439.31
2022-07-30T03:39:55.650Z,95444.59
2022-07-30T03:42:24.324Z,95441.94
2022-07-30T03:44:53.248Z,95439.31
2022-07-30T03:47:24.321Z,95448.50
2022-07-30T03:49:52.468Z,95447.22
2022-07-30T03:52:20.921Z,95454.09
2022-07-30T03:54:48.997Z,95461.56
2022-07-30T03:57:20.240Z,95459.91
2022-07-30T03:59:48.594Z,95457.28
2022-07-30T04:02:16.268Z,95463.47
2022-07-30T04:04:45.470Z,95467.44
2022-07-30T04:07:13.264Z,95466.91
2022-07-30T04:09:40.989Z,95472.28
2022-07-30T04:12:09.116Z,95473.38
2022-07-30T04:14:41.943Z,95478.47
2022-07-30T04:17:14.194Z,95486.38
2022-07-30T04:19:49.093Z,95490.13
2022-07-30T04:22:19.622Z,95492.16
2022-07-30T04:24:48.401Z,95493.13
2022-07-30T04:27:17.977Z,95494.13
2022-07-30T04:29:45.868Z,95498.91
2022-07-30T04:32:14.158Z,95493.66
2022-07-30T04:34:48.961Z,95505.03
2022-07-30T04:37:17.520Z,95510.63
2022-07-30T04:39:45.685Z,95505.84
2022-07-30T04:42:15.091Z,95509.66
2022-07-30T04:44:44.929Z,95509.13
2022-07-30T04:47:12.931Z,95516.56
2022-07-30T04:49:44.128Z,95514.28
2022-07-30T04:52:15.759Z,95522.22
2022-07-30T04:54:45.625Z,95516.31
2022-07-30T04:57:14.812Z,95521.75
2022-07-30T04:59:42.611Z,95523.97
2022-07-30T05:02:12.245Z,95519.34
2022-07-30T05:04:41.658Z,95514.78
2022-07-30T05:07:10.026Z,95519.41
2022-07-30T05:09:39.310Z,95521.22
2022-07-30T05:12:10.807Z,95517.44
2022-07-30T05:14:38.764Z,95515.13
2022-07-30T05:17:06.701Z,95526.19
2022-07-30T05:19:34.605Z,95522.69
2022-07-30T05:22:06.433Z,95524.25
2022-07-30T05:24:34.652Z,95517.50
2022-07-30T05:27:03.992Z,95525.41
2022-07-30T05:29:31.871Z,95531.31
2022-07-30T05:32:03.379Z,95536.56
2022-07-30T05:34:31.381Z,95529.50
2022-07-30T05:36:59.173Z,95534.38
2022-07-30T05:39:27.737Z,95533.03
2022-07-30T05:41:55.780Z,95543.91
2022-07-30T05:44:26.933Z,95537.78
2022-07-30T05:46:54.886Z,95541.44
2022-07-30T05:49:22.733Z,95535.94
2022-07-30T05:51:50.587Z,95548.31
2022-07-30T05:54:18.347Z,95544.19
2022-07-30T05:56:46.359Z,95557.19
2022-07-30T05:59:16.755Z,95552.38
2022-07-30T06:01:49.201Z,95554.63
2022-07-30T06:04:17.165Z,95550.88
2022-07-30T06:06:44.967Z,95550.84
2022-07-30T06:09:12.742Z,95562.25
2022-07-30T06:11:40.468Z,95565.41
2022-07-30T06:14:08.236Z,95560.19
2022-07-30T06:16:35.972Z,95565.91
2022-07-30T06:20:02.247Z,95561.88
2022-07-30T06:22:39.980Z,95566.31
2022-07-30T06:25:09.327Z,95580.44
2022-07-30T06:27:39.743Z,95574.06
2022-07-30T06:30:10.106Z,95578.66
2022-07-30T06:32:37.780Z,95590.34
2022-07-30T06:35:06.026Z,95577.03
2022-07-30T06:38:04.928Z,95592.19
2022-07-30T06:40:23.599Z,95593.16
2022-07-30T06:42:51.335Z,95592.47
2022-07-30T06:45:19.184Z,95598.09
2022-07-30T06:48:14.308Z,95602.91
2022-07-30T06:50:42.526Z,95601.97
2022-07-30T06:53:22.319Z,95603.09
2022-07-30T06:59:21.458Z,95609.69
2022-07-30T07:01:49.513Z,95604.13
2022-07-30T07:04:24.738Z,95611.22
2022-07-30T07:06:59.876Z,95603.44
2022-07-30T07:09:40.064Z,95607.06
2022-07-30T07:12:13.974Z,95598.53
2022-07-30T07:14:42.055Z,95609.66
2022-07-30T07:17:10.131Z,95609.78
2022-07-30T07:20:01.493Z,95609.41
2022-07-30T07:22:25.664Z,95609.19
2022-07-30T07:24:53.368Z,95602.38
2022-07-30T07:27:22.528Z,95599.81
2022-07-30T07:30:38.536Z,95605.31
2022-07-30T07:48:44.300Z,95599.16
2022-07-30T07:58:35.099Z,95588.34
2022-07-30T08:01:07.014Z,95580.25
2022-07-30T08:03:36.677Z,95593.56
2022-07-30T08:06:06.854Z,95585.75
2022-07-30T08:08:37.153Z,95585.53
2022-07-30T08:11:06.258Z,95590.91
2022-07-30T08:13:51.520Z,95588.75
2022-07-30T08:16:20.602Z,95600.09
2022-07-30T08:18:48.415Z,95608.88
2022-07-30T08:21:17.534Z,95596.75
2022-07-30T08:23:45.336Z,95610.88
2022-07-30T08:26:13.114Z,95609.66
2022-07-30T08:28:41.353Z,95608.50
2022-07-30T08:31:09.081Z,95603.94
2022-07-30T08:33:36.769Z,95614.59
2022-07-30T08:36:09.732Z,95606.88
2022-07-30T08:38:39.997Z,95610.88
2022-07-30T08:41:08.101Z,95605.03
2022-07-30T08:43:37.571Z,95602.00
2022-07-30T08:46:13.669Z,95604.84
2022-07-30T08:48:43.354Z,95614.31
2022-07-30T08:51:11.748Z,95601.19
2022-07-30T08:53:42.697Z,95602.16
2022-07-30T08:56:10.579Z,95611.72
2022-07-30T08:58:38.309Z,95602.97
2022-07-30T09:01:07.146Z,95611.75
2022-07-30T09:03:35.887Z,95613.19
2022-07-30T09:06:12.626Z,95598.50
2022-07-30T09:08:41.840Z,95610.34
2022-07-30T09:11:09.690Z,95612.06
2022-07-30T09:13:39.522Z,95611.72
2022-07-30T09:16:07.983Z,95606.78
2022-07-30T09:18:38.973Z,95603.66
2022-07-30T09:21:17.067Z,95608.09
2022-07-30T09:23:58.971Z,95607.25
2022-07-30T09:26:26.763Z,95611.25
2022-07-30T09:28:54.624Z,95599.69
2022-07-30T09:31:23.562Z,95595.84
2022-07-30T09:33:51.637Z,95606.50
2022-07-30T09:36:19.670Z,95596.88
2022-07-30T09:38:49.437Z,95604.59
2022-07-30T09:41:37.806Z,95605.97
2022-07-30T09:44:07.351Z,95602.47
2022-07-30T09:46:47.430Z,95603.38
2022-07-30T09:49:16.894Z,95599.88
2022-07-30T09:52:00.077Z,95605.59
2022-07-30T09:54:51.659Z,95604.84
2022-07-30T09:57:25.972Z,95606.56
2022-07-30T09:59:56.643Z,95596.66
2022-07-30T10:02:32.323Z,95604.66
2022-07-30T10:05:14.523Z,95603.34
2022-07-30T10:07:51.124Z,95601.94
2022-07-30T10:10:21.845Z,95601.69
2022-07-30T10:12:58.151Z,95607.38
2022-07-30T10:15:32.559Z,95598.97
2022-07-30T10:18:01.865Z,95599.44
2022-07-30T10:20:29.644Z,95601.56
2022-07-30T10:23:00.067Z,95601.63
2022-07-30T10:25:28.441Z,95602.81
2022-07-30T10:27:58.052Z,95617.31
2022-07-30T10:30:28.177Z,95602.06
2022-07-30T10:32:58.043Z,95604.41
2022-07-30T10:35:35.055Z,95597.34
2022-07-30T10:38:13.452Z,95604.72
2022-07-30T10:40:48.706Z,95605.34
2022-07-30T10:43:46.462Z,95596.41
2022-07-30T10:46:23.782Z,95607.25
2022-07-30T10:48:51.699Z,95613.34
2022-07-30T10:51:25.506Z,95591.69
2022-07-30T10:54:02.540Z,95599.09
2022-07-30T10:56:30.403Z,95612.06
2022-07-30T10:59:04.687Z,95609.16
2022-07-30T11:02:10.319Z,95613.66
2022-07-30T11:07:31.446Z,95600.97
2022-07-30T11:10:08.749Z,95607.63
2022-07-30T11:12:55.014Z,95607.06
2022-07-30T11:15:24.472Z,95607.97
2022-07-30T11:18:01.049Z,95613.72
2022-07-30T11:20:29.175Z,95599.19
2022-07-30T11:23:10.262Z,95607.97
2022-07-30T11:25:50.652Z,95599.63
2022-07-30T11:28:41.374Z,95596.41
2022-07-30T11:31:54.713Z,95603.56
2022-07-30T11:34:28.234Z,95592.97
2022-07-30T11:37:19.246Z,95594.41
2022-07-30T11:40:10.846Z,95589.84
2022-07-30T11:42:40.331Z,95573.66
2022-07-30T11:45:26.945Z,95595.84
2022-07-30T11:48:00.225Z,95606.81
2022-07-30T11:50:30.334Z,95603.59
2022-07-30T11:53:01.097Z,95607.38
2022-07-30T11:55:31.294Z,95600.47
2022-07-30T11:58:00.442Z,95607.78
2022-07-30T12:00:35.337Z,95604.16
2022-07-30T12:03:11.441Z,95617.28
2022-07-30T12:05:39.978Z,95619.13
2022-07-30T12:08:07.867Z,95617.41
2022-07-30T12:10:39.035Z,95606.59
2022-07-30T12:13:12.702Z,95584.53
2022-07-30T12:15:43.143Z,95601.84
2022-07-30T12:18:28.976Z,95594.09
2022-07-30T12:21:01.539Z,95593.88
2022-07-30T12:23:30.947Z,95590.91
2022-07-30T12:25:59.329Z,95580.13
2022-07-30T12:28:28.855Z,95577.19
2022-07-30T12:30:57.559Z,95592.34
2022-07-30T12:33:27.421Z,95597.03
2022-07-30T12:35:56.467Z,95591.50
2022-07-30T12:38:25.713Z,95595.59
2022-07-30T12:41:04.116Z,95570.53
2022-07-30T12:43:46.355Z,95586.47
2022-07-30T12:46:16.289Z,95598.31
2022-07-30T12:49:21.634Z,95591.00
2022-07-30T12:51:59.857Z,95596.72
2022-07-30T12:54:28.954Z,95595.91
2022-07-30T12:56:59.402Z,95587.75
2022-07-30T12:59:28.130Z,95581.19
2022-07-30T13:01:57.184Z,95579.19
2022-07-30T13:04:26.552Z,95568.41
2022-07-30T13:07:08.173Z,95585.31
2022-07-30T13:09:36.963Z,95590.84
2022-07-30T13:12:05.465Z,95578.56
2022-07-30T13:14:33.616Z,95594.66
2022-07-30T13:17:03.666Z,95585.69
2022-07-30T13:19:33.372Z,95585.28
2022-07-30T13:22:01.223Z,95591.03
2022-07-30T13:24:28.936Z,95594.06
2022-07-30T13:26:56.575Z,95579.38
2022-07-30T13:29:24.320Z,95586.53
2022-07-30T13:31:52.642Z,95575.97
2022-07-30T13:34:20.318Z,95588.06
2022-07-30T13:36:49.453Z,95590.34
2022-07-30T13:39:17.126Z,95564.19
2022-07-30T13:41:44.867Z,95585.84
2022-07-30T13:44:12.596Z,95586.88
2022-07-30T13:46:41.373Z,95581.78
2022-07-30T13:49:09.330Z,95572.38
2022-07-30T13:51:37.240Z,95580.34
2022-07-30T13:54:07.316Z,95566.66
2022-07-30T13:56:35.059Z,95572.81
2022-07-30T13:59:08.755Z,95567.28
2022-07-30T14:01:36.855Z,95564.41
2022-07-30T14:04:05.848Z,95564.84
2022-07-30T14:06:33.537Z,95578.75
2022-07-30T14:09:01.177Z,95562.38
2022-07-30T14:11:30.596Z,95569.13
2022-07-30T14:13:58.324Z,95561.59
2022-07-30T14:16:44.303Z,95567.91
2022-07-30T14:19:23.370Z,95568.50
2022-07-30T14:21:52.557Z,95561.13
2022-07-30T14:24:20.568Z,95553.72
2022-07-30T14:26:54.453Z,95562.06
2022-07-30T14:29:26.109Z,95549.78
2022-07-30T14:31:53.868Z,95551.84
2022-07-30T14:34:21.676Z,95551.03
2022-07-30T14:36:49.608Z,95551.78
2022-07-30T14:39:17.253Z,95549.13
2022-07-30T14:41:44.955Z,95548.31
2022-07-30T14:44:13.984Z,95553.41
2022-07-30T14:46:52.546Z,95548.66
2022-07-30T14:49:20.871Z,95543.16
2022-07-30T14:51:48.893Z,95532.66
2022-07-30T14:54:16.935Z,95540.28
2022-07-30T14:56:44.629Z,95539.50
2022-07-30T14:59:13.848Z,95534.94
2022-07-30T15:01:42.293Z,95549.09
2022-07-30T15:04:11.485Z,95547.69
2022-07-30T15:06:40.795Z,95540.72
2022-07-30T15:09:08.943Z,95531.13
2022-07-30T15:12:04.360Z,95538.00
2022-07-30T15:14:26.971Z,95530.06
2022-07-30T15:17:00.644Z,95545.56
2022-07-30T15:19:31.542Z,95542.16
2022-07-30T15:22:02.005Z,95543.41
2022-07-30T15:24:30.511Z,95533.28
2022-07-30T15:26:58.206Z,95549.69
2022-07-30T15:29:29.337Z,95544.19
2022-07-30T15:31:57.127Z,95544.69
2022-07-30T15:34:24.763Z,95545.66
2022-07-30T15:36:52.636Z,95548.09
2022-07-30T15:39:20.305Z,95540.31
2022-07-30T15:41:48.075Z,95542.53
2022-07-30T15:44:20.105Z,95549.59
2022-07-30T15:46:49.767Z,95529.16
2022-07-30T15:49:17.847Z,95538.78
2022-07-30T15:51:48.711Z,95539.59
2022-07-30T15:54:22.529Z,95538.28
2022-07-30T15:56:51.353Z,95537.16
2022-07-30T15:59:19.394Z,95535.91
2022-07-30T16:01:49.204Z,95541.88
2022-07-30T16:04:19.291Z,95533.81
2022-07-30T16:06:48.141Z,95531.47
2022-07-30T16:09:15.954Z,95519.84
2022-07-30T16:11:43.604Z,95531.59
2022-07-30T16:14:11.610Z,95537.09
2022-07-30T16:16:39.245Z,95536.25
2022-07-30T16:19:08.608Z,95543.63
2022-07-30T16:21:36.759Z,95540.66
2022-07-30T16:24:05.186Z,95542.06
2022-07-30T16:26:33.184Z,95544.50
2022-07-30T16:29:00.834Z,95532.88
2022-07-30T16:31:28.572Z,95542.53
2022-07-30T16:33:56.293Z,95530.78
2022-07-30T16:36:25.303Z,95541.25
2022-07-30T16:38:52.974Z,95529.56
2022-07-30T16:41:20.706Z,95535.50
2022-07-30T16:43:48.398Z,95541.78
2022-07-30T16:46:16.067Z,95540.06
2022-07-30T16:48:47.436Z,95538.91
2022-07-30T16:51:18.374Z,95542.31
2022-07-30T16:53:48.540Z,95532.81
2022-07-30T16:56:16.264Z,95539.00
2022-07-30T16:58:43.990Z,95545.94
2022-07-30T17:01:11.760Z,95552.91
2022-07-30T17:03:39.557Z,95542.22
2022-07-30T17:06:07.369Z,95538.75
2022-07-30T17:08:35.308Z,95547.75
2022-07-30T17:11:09.510Z,95555.44
2022-07-30T17:13:40.289Z,95557.84
2022-07-30T17:16:08.117Z,95560.63
2022-07-30T17:18:35.886Z,95571.03
2022-07-30T17:21:03.697Z,95580.16
2022-07-30T17:23:31.420Z,95579.47
2022-07-30T17:25:59.125Z,95578.91
2022-07-30T17:28:28.228Z,95582.03
2022-07-30T17:30:55.887Z,95571.63
2022-07-30T17:33:23.719Z,95570.41
2022-07-30T17:35:51.462Z,95579.84
2022-07-30T17:38:19.702Z,95584.56
2022-07-30T17:40:48.281Z,95583.22
2022-07-30T17:43:16.031Z,95585.56
2022-07-30T17:45:45.093Z,95588.63
2022-07-30T17:48:12.971Z,95597.03
2022-07-30T17:50:40.777Z,95599.53
2022-07-30T17:53:08.465Z,95600.34
2022-07-30T17:55:36.243Z,95591.81
2022-07-30T17:58:04.783Z,95606.44
2022-07-30T18:00:34.541Z,95599.69
2022-07-30T18:03:03.841Z,95594.22
2022-07-30T18:05:31.555Z,95597.91
2022-07-30T18:07:59.207Z,95593.66
2022-07-30T18:10:26.935Z,95602.25
2022-07-30T18:12:54.679Z,95604.91
2022-07-30T18:15:22.610Z,95596.44
2022-07-30T18:17:50.393Z,95602.97
2022-07-30T18:20:19.430Z,95597.28
2022-07-30T18:22:47.486Z,95602.34
2022-07-30T18:25:19.673Z,95605.84
2022-07-30T18:27:47.557Z,95613.44
2022-07-30T18:30:15.619Z,95629.19
2022-07-30T18:32:43.319Z,95639.81
2022-07-30T18:35:14.712Z,95633.91
2022-07-30T18:37:44.810Z,95639.41
2022-07-30T18:40:14.139Z,95648.97
2022-07-30T18:42:41.852Z,95652.41
2022-07-30T18:45:13.863Z,95658.38
2022-07-30T18:47:41.920Z,95657.34
2022-07-30T18:50:10.835Z,95664.28
2022-07-30T18:52:38.713Z,95663.19
2022-07-30T18:55:11.238Z,95667.75
2022-07-30T18:57:39.213Z,95658.69
2022-07-30T19:00:09.115Z,95669.94
2022-07-30T19:02:37.930Z,95662.34
2022-07-30T19:05:06.784Z,95668.56
2022-07-30T19:07:57.206Z,95666.81
2022-07-30T19:10:26.941Z,95665.88
2022-07-30T19:12:55.189Z,95670.03
2022-07-30T19:15:23.416Z,95663.84
2022-07-30T19:17:51.788Z,95675.50
2022-07-30T19:20:19.935Z,95676.78
2022-07-30T19:22:47.800Z,95670.69
2022-07-30T19:25:15.673Z,95671.56
2022-07-30T19:27:44.630Z,95662.88
2022-07-30T19:30:13.450Z,95664.53
2022-07-30T19:32:41.221Z,95662.31
2022-07-30T19:35:13.392Z,95676.19
2022-07-30T19:37:41.432Z,95675.63
2022-07-30T19:40:10.023Z,95674.25
2022-07-30T19:42:41.256Z,95675.28
2022-07-30T19:45:13.076Z,95687.91
2022-07-30T19:47:42.620Z,95683.81
2022-07-30T19:50:11.862Z,95687.88
2022-07-30T19:52:39.971Z,95681.53
2022-07-30T19:55:34.946Z,95687.78
2022-07-30T19:58:04.675Z,95688.19
2022-07-30T20:00:49.587Z,95687.56
2022-07-30T20:03:25.263Z,95693.53
2022-07-30T20:08:42.023Z,95701.78
2022-07-30T20:11:21.276Z,95702.22
2022-07-30T20:14:02.252Z,95698.13
2022-07-30T20:16:35.454Z,95704.31
2022-07-30T20:19:04.585Z,95701.72
2022-07-30T20:21:55.917Z,95699.81
2022-07-30T20:24:21.335Z,95704.28
2022-07-30T20:26:49.044Z,95705.09
2022-07-30T20:29:19.014Z,95699.81
2022-07-30T20:31:50.166Z,95698.91
2022-07-30T20:34:20.652Z,95696.53
2022-07-30T20:36:52.074Z,95698.31
2022-07-30T20:39:21.691Z,95699.25
2022-07-30T20:41:49.383Z,95704.13
2022-07-30T20:44:23.372Z,95698.75
2022-07-30T20:46:52.961Z,95704.47
2022-07-30T20:49:24.162Z,95706.97
2022-07-30T20:52:02.853Z,95707.63
2022-07-30T20:54:31.190Z,95715.63
2022-07-30T20:57:00.973Z,95712.34
2022-07-30T20:59:29.943Z,95710.44
2022-07-30T21:02:00.340Z,95709.06
2022-07-30T21:04:28.292Z,95714.00
2022-07-30T21:06:59.054Z,95712.22
2022-07-30T21:09:28.963Z,95701.00
2022-07-30T21:12:16.710Z,95711.03
2022-07-30T21:14:45.108Z,95709.84
2022-07-30T21:17:18.286Z,95715.84
2022-07-30T21:19:48.688Z,95713.56
2022-07-30T21:22:16.686Z,95721.03
2022-07-30T21:24:44.443Z,95716.72
2022-07-30T21:27:13.266Z,95728.31
2022-07-30T21:29:41.064Z,95728.78
2022-07-30T21:32:09.039Z,95731.78
2022-07-30T21:34:42.030Z,95734.34
2022-07-30T21:37:10.222Z,95722.59
2022-07-30T21:39:41.493Z,95711.94
2022-07-30T21:42:09.349Z,95723.28
2022-07-30T21:44:37.578Z,95724.00
2022-07-30T21:47:05.636Z,95724.31
2022-07-30T21:49:41.182Z,95720.97
2022-07-30T21:52:12.727Z,95734.78
2022-07-30T21:54:48.016Z,95733.44
2022-07-30T21:57:23.282Z,95733.50
2022-07-30T21:59:55.073Z,95731.69
2022-07-30T22:02:23.754Z,95731.28
2022-07-30T22:04:53.650Z,95736.78
2022-07-30T22:07:22.388Z,95728.16
2022-07-30T22:09:50.197Z,95734.06
2022-07-30T22:12:18.778Z,95733.53
2022-07-30T22:14:49.690Z,95734.16
2022-07-30T22:17:23.345Z,95736.50
2022-07-30T22:19:54.708Z,95732.28
2022-07-30T22:22:27.450Z,95732.22
2022-07-30T22:24:58.166Z,95730.97
2022-07-30T22:27:26.171Z,95730.31
2022-07-30T22:29:55.638Z,95724.25
2022-07-30T22:32:23.803Z,95733.16
2022-07-30T22:34:53.703Z,95724.09
2022-07-30T22:37:21.848Z,95727.31
2022-07-30T22:39:50.978Z,95721.19
2022-07-30T22:42:19.776Z,95722.84
2022-07-30T22:44:48.184Z,95716.09
2022-07-30T22:47:21.078Z,95724.47
2022-07-30T22:50:08.112Z,95713.66
2022-07-30T22:52:38.234Z,95717.22
2022-07-30T22:55:09.244Z,95718.13
2022-07-30T22:57:38.414Z,95717.97
2022-07-30T23:00:12.294Z,95714.16
2022-07-30T23:02:40.881Z,95721.28
2022-07-30T23:05:10.838Z,95717.75
2022-07-30T23:07:40.402Z,95717.28
2022-07-30T23:10:12.310Z,95717.06
2022-07-30T23:12:17.358Z,95700.34
2022-07-30T23:12:57.777Z,95723.53
2022-07-30T23:15:25.547Z,95723.41
2022-07-30T23:17:53.311Z,95724.59
2022-07-30T23:20:23.219Z,95730.69
2022-07-30T23:22:53.717Z,95726.41
2022-07-30T23:25:22.934Z,95719.38
2022-07-30T23:27:52.217Z,95723.59
2022-07-30T23:30:19.941Z,95718.25
2022-07-30T23:32:47.628Z,95721.25
2022-07-30T23:35:16.426Z,95727.44
2022-07-30T23:37:48.275Z,95724.44
2022-07-30T23:40:16.538Z,95719.84
2022-07-30T23:42:44.548Z,95722.50
2022-07-30T23:45:12.387Z,95719.78
2022-07-30T23:48:00.166Z,95717.59
2022-07-30T23:50:28.272Z,95712.41
2022-07-30T23:52:57.287Z,95718.16
2022-07-30T23:55:25.271Z,95716.97
2022-07-30T23:57:53.238Z,95721.91
